• Join FlightAware (Why Join?)
  • Login
  • US Flag 
11:12AM EDT


 

Airport Tracker/Info


-or-


 

Live Flight TrackerFlight Track Log ✈ FLG3729 ✈ 23-Jun-2013 ✈ KGSP - KDTW

Flight Track Log - Related Links

Times and Time Zones

All times are in EDT time to prevent confusion due to time zone crossing. See the FLG3729 flight status page for this flight to view local times or setup timezone preferences in your user account.

Time Position Orientation Groundspeed Altitude Reporting Facility
EDT Latitude Longitude Course Direction KTS MPH feet Rate Location/Type
02:29PM 35.1329 -81.9167 North  Level FlightAware Approximate
02:29PM 34.7217 -82.2017 North 290 334 8,300  Level Atlanta Center
02:30PM 35.2286 -81.9333 North  Level FlightAware Approximate
02:30PM 34.6994 -82.1086 106° East 297 342 10,300  Level Atlanta Center
02:31PM 35.3261 -81.9333 North  Level FlightAware Approximate
02:31PM 34.7758 -82.0611 27° Northeast 224 258 11,300  Level Atlanta Center
02:32PM 35.4237 -81.9333 360° North  Level FlightAware Approximate
02:32PM 34.8781 -82.0614 360° North 269 310 13,000  Level Atlanta Center
02:33PM 35.5212 -81.9333 North  Level FlightAware Approximate
02:33PM 34.9847 -82.0689 357° North 340 391 14,600  Level Atlanta Center
02:34PM 35.6182 -81.9447 352° North  Level FlightAware Approximate
02:34PM 35.0911 -82.0664 North 362 417 15,900  Level Atlanta Center
02:35PM 35.7154 -81.9500 North  Level FlightAware Approximate
02:35PM 35.1994 -82.0564 North 386 444 17,100  Level Atlanta Center
02:36PM 35.3097 -82.0306 11° North 392 451 18,600 1,440 Climbing Atlanta Center
02:37PM 35.4031 -82.0081 11° North 392 451 20,000 1,380 Climbing Atlanta Center
02:38PM 35.5092 -81.9800 12° North 385 443 21,400 1,200 Climbing Atlanta Center
02:39PM 35.6131 -81.9644 North 385 443 22,400 780 Climbing Atlanta Center
02:40PM 35.7258 -81.9667 359° North 385 443 23,000 540 Climbing Atlanta Center
02:41PM 35.8511 -81.9686 359° North 401 461 23,500 960 Climbing Atlanta Center
02:42PM 35.9658 -81.9683 360° North 411 473 25,000 1,140 Climbing Atlanta Center
02:43PM 36.0806 -81.9731 358° North 406 467 25,800 600 Climbing Atlanta Center
02:44PM 36.1953 -81.9753 359° North 405 466 26,300 480 Climbing Atlanta Center
02:45PM 36.3100 -81.9750 360° North 405 466 26,800 480 Climbing Atlanta Center
02:46PM 36.4289 -81.9769 359° North 415 478 27,300 480 Climbing Atlanta Center
02:47PM 36.5497 -81.9767 360° North 430 495 27,800 480 Climbing Atlanta Center
02:50PM 36.8389 -81.9856 359° North 446 513 29,000 480 Climbing Indianapolis Center
02:51PM 36.9608 -81.9881 359° North 440 506 29,500 480 Climbing Indianapolis Center
02:52PM 37.0836 -81.9903 359° North 442 509 30,000 480 Climbing Indianapolis Center
02:53PM 37.2075 -81.9928 359° North 444 511 30,500 480 Climbing Indianapolis Center
02:54PM 37.3306 -81.9953 359° North 444 511 31,000 240 Climbing Indianapolis Center
02:55PM 37.4767 -81.9994 359° North 450 518 31,000  Level Indianapolis Center
02:56PM 37.6061 -82.0008 360° North 463 533 31,000  Level Indianapolis Center
02:57PM 37.7356 -82.0044 359° North 465 535 31,000  Level Indianapolis Center
02:58PM 37.8675 -82.0069 359° North 472 543 31,000  Level Indianapolis Center
02:59PM 38.0011 -82.0089 359° North 474 545 31,000  Level Indianapolis Center
03:00PM 38.1336 -82.0119 359° North 472 543 31,000  Level Indianapolis Center
03:01PM 38.2672 -82.0147 359° North 477 549 31,000  Level Indianapolis Center
03:02PM 38.4014 -82.0175 359° North 479 551 31,000  Level Indianapolis Center
03:03PM 38.5614 -82.0214 359° North 475 547 31,000  Level Indianapolis Center
03:04PM 38.6964 -82.0247 359° North 479 551 31,000  Level Indianapolis Center
03:05PM 38.8297 -82.0392 355° North 478 550 31,000  Level Indianapolis Center
03:06PM 38.9633 -82.0597 353° North 479 551 31,000 -300 Level Indianapolis Center
03:07PM 39.0961 -82.0811 353° North 479 551 30,500 -540 Descending Indianapolis Center
03:08PM 39.2353 -82.1017 353° North 498 573 30,000 -300 Descending Indianapolis Center
03:09PM 39.3706 -82.1225 353° North 489 563 30,000  Level Indianapolis Center
03:10PM 39.5053 -82.1442 353° North 477 549 30,000  Level Indianapolis Center
03:11PM 39.6594 -82.1683 353° North 474 545 30,000 -60 Level Indianapolis Center
03:12PM 39.7917 -82.1886 353° North 475 547 29,900  Descending Indianapolis Center
03:13PM 39.9228 -82.2106 353° North 472 543 30,000  Climbing Indianapolis Center
03:14PM 40.0536 -82.2317 353° North 471 542 30,000  Level Indianapolis Center
03:15PM 40.1856 -82.2539 353° North 474 545 30,000  Level Indianapolis Center
03:16PM 40.3317 -82.2781 353° North 469 540 30,000  Level Indianapolis Center
03:17PM 40.4642 -82.2994 353° North 473 544 30,000  Level Indianapolis Center
03:18PM 40.5942 -82.3339 349° North 472 543 30,000  Level Indianapolis Center
03:19PM 40.7256 -82.3711 348° North 475 547 30,000 -600 Level Indianapolis Center
03:21PM 40.8567 -82.4083 348° North 476 548 28,800 -1,380 Descending Indianapolis Center
03:22PM 40.9869 -82.4472 347° North 473 544 27,200 -1,620 Descending Indianapolis Center
03:23PM 41.1372 -82.4939 347° North 467 537 25,400 -1,560 Descending Cleveland Center
03:24PM 41.2594 -82.5389 345° North 462 532 23,900 -1,800 Descending Cleveland Center
03:25PM 41.3536 -82.6439 320° Northwest 446 513 21,800 -2,340 Descending Cleveland Center
03:26PM 41.4392 -82.7436 319° Northwest 438 504 19,300 -2,400 Descending Cleveland Center
03:27PM 41.5250 -82.8408 320° Northwest 405 466 17,000 -2,220 Descending Cleveland Center
03:28PM 41.5942 -82.9211 319° Northwest 387 445 14,900 -2,340 Descending Cleveland Center
03:28PM 41.6450 -82.9783 320° Northwest 370 426 13,500 -2,040 Descending Cleveland Center
03:29PM 41.6694 -83.0100 316° Northwest 374 430 12,900 -1,500 Descending Cleveland Center
03:29PM 41.7225 -83.0647 322° Northwest 361 415 12,000 -600 Descending Cleveland Center
03:30PM 41.8106 -83.1378 328° Northwest 366 421 12,000  Level Cleveland Center
03:31PM 41.8944 -83.2025 330° Northwest 363 418 12,000  Level Cleveland Center
03:32PM 41.9869 -83.2706 331° Northwest 278 320 12,000  Level Cleveland Center
03:33PM 42.0503 -83.3181 331° Northwest 255 293 12,000  Level Cleveland Center
03:34PM 42.1175 -83.2958 14° North 256 295 12,000 -660 Level Cleveland Center
03:35PM 42.1833 -83.2481 28° Northeast 263 303 10,700 -1,440 Descending Cleveland Center
03:36PM 42.2472 -83.1947 32° Northeast 256 295 9,100 -1,380 Descending Cleveland Center
03:37PM 42.3003 -83.1464 34° Northeast 227 261 8,000 -1,200 Descending Cleveland Center
03:38PM 42.3556 -83.0981 33° Northeast 235 270 6,700 -1,020 Descending Cleveland Center
03:39PM 42.4147 -83.0581 27° Northeast 229 264 6,000 -840 Descending Cleveland Center
03:40PM 42.4553 -83.1103 316° Northwest 198 228 5,000 -540 Descending Cleveland Center
03:42PM 42.4353 -83.1714 246° West 185 213 5,000 -300 Level Cleveland Center
03:43PM 42.3886 -83.2089 211° Southwest 193 222 4,400 -840 Descending Cleveland Center
03:44PM 42.3461 -83.2408 209° Southwest 176 203 3,400 -1,020 Descending Cleveland Center